LKPR/PRG METAR and TAF weather

Enter ICAO airport designator
Station Type Date Time Source
LKPR METAR 2019/06/18 04:30 UTC NOAA

LKPR 180430Z 02003KT 330V050 CAVOK 14/12 Q1019 NOSIG


Station Type Date Time Source
LKPR Decoded METAR 2019/06/18 04:30 UTC NOAA

Praha / Ruzyne, Czech Republic (LKPR) 50-06N 014-15E 365M
Jun 18, 2019 - 12:30 AM EDT / 2019.06.18 0430 UTC
Wind: from the NNE (020 degrees) at 3 MPH (3 KT) (direction variable):0
Visibility: greater than 7 mile(s):0
Temperature: 57 F (14 C)
Dew Point: 53 F (12 C)
Relative Humidity: 87%
Pressure (altimeter): 30.09 in. Hg (1019 hPa)
ob: LKPR 180430Z 02003KT 330V050 CAVOK 14/12 Q1019 NOSIG
cycle: 4

Station Type Date Time Source
LKPR TAF 2019/06/17 18:34 UTC NOAA

TAF LKPR 171700Z 1718/1900 11006KT CAVOK
BECMG 1809/1812 15010KT

Example: see airport list